sensor_id;sensor_type;location;lat;lon;timestamp;pressure;altitude;pressure_sealevel;temperature;humidity
49973;BME280;65693;49.798;10.968;2023-04-08T00:00:45;98353.84;;;10.10;46.73
49973;BME280;65693;49.798;10.968;2023-04-08T00:03:11;98355.63;;;10.10;46.69
49973;BME280;65693;49.798;10.968;2023-04-08T00:05:38;98363.47;;;10.11;47.13
49973;BME280;65693;49.798;10.968;2023-04-08T00:08:04;98360.91;;;10.10;47.23
49973;BME280;65693;49.798;10.968;2023-04-08T00:10:31;98360.16;;;10.08;47.14
49973;BME280;65693;49.798;10.968;2023-04-08T00:12:58;98354.78;;;10.09;47.06
49973;BME280;65693;49.798;10.968;2023-04-08T00:15:26;98359.28;;;10.07;46.74
49973;BME280;65693;49.798;10.968;2023-04-08T00:17:52;98362.03;;;10.06;47.14
49973;BME280;65693;49.798;10.968;2023-04-08T00:20:20;98362.81;;;10.08;46.77
49973;BME280;65693;49.798;10.968;2023-04-08T00:22:46;98362.88;;;10.06;46.70
49973;BME280;65693;49.798;10.968;2023-04-08T00:25:12;98365.63;;;10.05;46.80
49973;BME280;65693;49.798;10.968;2023-04-08T00:27:39;98363.94;;;10.04;47.10
49973;BME280;65693;49.798;10.968;2023-04-08T00:30:06;98368.28;;;10.05;47.07
49973;BME280;65693;49.798;10.968;2023-04-08T00:32:35;98364.88;;;10.03;47.02
49973;BME280;65693;49.798;10.968;2023-04-08T00:35:01;98370.19;;;10.03;46.89
49973;BME280;65693;49.798;10.968;2023-04-08T00:37:28;98370.06;;;10.04;47.10
49973;BME280;65693;49.798;10.968;2023-04-08T00:39:55;98366.66;;;10.02;46.78
49973;BME280;65693;49.798;10.968;2023-04-08T00:42:22;98371.13;;;10.02;47.23
49973;BME280;65693;49.798;10.968;2023-04-08T00:44:48;98367.69;;;10.00;46.86
49973;BME280;65693;49.798;10.968;2023-04-08T00:47:15;98364.28;;;9.97;46.93
49973;BME280;65693;49.798;10.968;2023-04-08T00:49:43;98365.97;;;9.99;47.05
49973;BME280;65693;49.798;10.968;2023-04-08T00:52:10;98369.56;;;9.97;46.98
49973;BME280;65693;49.798;10.968;2023-04-08T00:54:37;98369.56;;;9.97;47.19
49973;BME280;65693;49.798;10.968;2023-04-08T00:57:03;98372.97;;;10.00;46.83
49973;BME280;65693;49.798;10.968;2023-04-08T00:59:30;98363.53;;;9.95;46.73
49973;BME280;65693;49.798;10.968;2023-04-08T01:02:04;98381.09;;;9.96;47.07
49973;BME280;65693;49.798;10.968;2023-04-08T01:04:39;98373.28;;;9.95;46.63
49973;BME280;65693;49.798;10.968;2023-04-08T01:07:16;98376.75;;;9.95;47.01
49973;BME280;65693;49.798;10.968;2023-04-08T01:09:46;98378.47;;;9.96;47.14
49973;BME280;65693;49.798;10.968;2023-04-08T01:12:18;98371.56;;;9.94;46.71
49973;BME280;65693;49.798;10.968;2023-04-08T01:14:46;98375.06;;;9.94;46.92
49973;BME280;65693;49.798;10.968;2023-04-08T01:17:18;98369.06;;;9.91;46.81
49973;BME280;65693;49.798;10.968;2023-04-08T01:19:48;98375.25;;;9.91;47.24
49973;BME280;65693;49.798;10.968;2023-04-08T01:22:22;98375.44;;;9.88;46.84
49973;BME280;65693;49.798;10.968;2023-04-08T01:24:56;98375.25;;;9.91;47.00
49973;BME280;65693;49.798;10.968;2023-04-08T01:27:26;98377.88;;;9.91;47.03
49973;BME280;65693;49.798;10.968;2023-04-08T01:29:54;98374.47;;;9.89;47.05
49973;BME280;65693;49.798;10.968;2023-04-08T01:32:21;98376.19;;;9.90;47.03
49973;BME280;65693;49.798;10.968;2023-04-08T01:34:49;98374.56;;;9.88;46.89
49973;BME280;65693;49.798;10.968;2023-04-08T01:37:17;98374.56;;;9.88;47.11
49973;BME280;65693;49.798;10.968;2023-04-08T01:39:45;98375.44;;;9.88;46.94
49973;BME280;65693;49.798;10.968;2023-04-08T01:42:12;98372.66;;;9.90;46.95
49973;BME280;65693;49.798;10.968;2023-04-08T01:44:41;98372.84;;;9.87;47.03
49973;BME280;65693;49.798;10.968;2023-04-08T01:47:09;98372.03;;;9.86;46.67
49973;BME280;65693;49.798;10.968;2023-04-08T01:49:37;98379.97;;;9.86;47.15
49973;BME280;65693;49.798;10.968;2023-04-08T01:52:04;98377.31;;;9.86;47.09
49973;BME280;65693;49.798;10.968;2023-04-08T01:54:31;98372.09;;;9.85;47.12
49973;BME280;65693;49.798;10.968;2023-04-08T01:57:00;98373.91;;;9.84;47.12
49973;BME280;65693;49.798;10.968;2023-04-08T01:59:30;98370.31;;;9.85;47.08
49973;BME280;65693;49.798;10.968;2023-04-08T02:02:04;98368.69;;;9.82;46.91
49973;BME280;65693;49.798;10.968;2023-04-08T02:04:33;98374.81;;;9.83;47.25
49973;BME280;65693;49.798;10.968;2023-04-08T02:07:00;98381.94;;;9.82;47.11
49973;BME280;65693;49.798;10.968;2023-04-08T02:09:26;98376.63;;;9.82;47.03
49973;BME280;65693;49.798;10.968;2023-04-08T02:11:53;98388.06;;;9.83;46.88
49973;BME280;65693;49.798;10.968;2023-04-08T02:14:21;98378.53;;;9.80;46.93
49973;BME280;65693;49.798;10.968;2023-04-08T02:16:52;98388.16;;;9.81;47.02
49973;BME280;65693;49.798;10.968;2023-04-08T02:19:24;98384.75;;;9.79;47.25
49973;BME280;65693;49.798;10.968;2023-04-08T02:21:57;98376.81;;;9.79;47.03
49973;BME280;65693;49.798;10.968;2023-04-08T02:24:25;98383.06;;;9.78;46.95
49973;BME280;65693;49.798;10.968;2023-04-08T02:26:54;98378.69;;;9.77;47.03
49973;BME280;65693;49.798;10.968;2023-04-08T02:29:22;98385.78;;;9.77;47.08
49973;BME280;65693;49.798;10.968;2023-04-08T02:31:50;98384.00;;;9.77;46.85
49973;BME280;65693;49.798;10.968;2023-04-08T02:34:17;98385.78;;;9.77;47.38
49973;BME280;65693;49.798;10.968;2023-04-08T02:36:47;98392.88;;;9.76;47.14
49973;BME280;65693;49.798;10.968;2023-04-08T02:39:15;98396.38;;;9.77;47.06
49973;BME280;65693;49.798;10.968;2023-04-08T02:41:41;98397.22;;;9.77;46.82
49973;BME280;65693;49.798;10.968;2023-04-08T02:44:08;98392.00;;;9.76;46.97
49973;BME280;65693;49.798;10.968;2023-04-08T02:46:34;98399.00;;;9.77;47.11
49973;BME280;65693;49.798;10.968;2023-04-08T02:49:01;98396.53;;;9.74;46.83
49973;BME280;65693;49.798;10.968;2023-04-08T02:51:27;98403.63;;;9.73;47.14
49973;BME280;65693;49.798;10.968;2023-04-08T02:53:55;98400.13;;;9.73;47.22
49973;BME280;65693;49.798;10.968;2023-04-08T02:56:21;98399.25;;;9.72;47.09
49973;BME280;65693;49.798;10.968;2023-04-08T02:58:48;98400.13;;;9.73;47.30
49973;BME280;65693;49.798;10.968;2023-04-08T03:01:16;98393.91;;;9.74;47.09
49973;BME280;65693;49.798;10.968;2023-04-08T03:03:42;98393.22;;;9.70;47.10
49973;BME280;65693;49.798;10.968;2023-04-08T03:06:09;98399.38;;;9.71;47.04
49973;BME280;65693;49.798;10.968;2023-04-08T03:08:35;98396.72;;;9.71;47.15
49973;BME280;65693;49.798;10.968;2023-04-08T03:11:03;98406.56;;;9.68;46.91
49973;BME280;65693;49.798;10.968;2023-04-08T03:13:29;98401.25;;;9.68;46.90
49973;BME280;65693;49.798;10.968;2023-04-08T03:15:56;98406.63;;;9.67;47.31
49973;BME280;65693;49.798;10.968;2023-04-08T03:18:24;98407.31;;;9.71;46.96
49973;BME280;65693;49.798;10.968;2023-04-08T03:20:50;98406.69;;;9.65;47.14
49973;BME280;65693;49.798;10.968;2023-04-08T03:23:17;98404.84;;;9.67;47.20
49973;BME280;65693;49.798;10.968;2023-04-08T03:25:43;98408.41;;;9.66;47.00
49973;BME280;65693;49.798;10.968;2023-04-08T03:28:11;98405.75;;;9.66;47.00
49973;BME280;65693;49.798;10.968;2023-04-08T03:30:37;98407.66;;;9.64;47.23
49973;BME280;65693;49.798;10.968;2023-04-08T03:33:04;98410.22;;;9.66;47.14
49973;BME280;65693;49.798;10.968;2023-04-08T03:35:32;98416.44;;;9.65;47.19
49973;BME280;65693;49.798;10.968;2023-04-08T03:37:58;98420.03;;;9.64;47.09
49973;BME280;65693;49.798;10.968;2023-04-08T03:40:25;98419.94;;;9.65;46.90
49973;BME280;65693;49.798;10.968;2023-04-08T03:42:51;98418.34;;;9.63;46.98
49973;BME280;65693;49.798;10.968;2023-04-08T03:45:19;98419.28;;;9.62;47.13
49973;BME280;65693;49.798;10.968;2023-04-08T03:47:46;98421.81;;;9.63;46.92
49973;BME280;65693;49.798;10.968;2023-04-08T03:50:12;98421.91;;;9.62;47.15
49973;BME280;65693;49.798;10.968;2023-04-08T03:52:38;98414.16;;;9.59;47.19
49973;BME280;65693;49.798;10.968;2023-04-08T03:55:05;98411.50;;;9.59;47.24
49973;BME280;65693;49.798;10.968;2023-04-08T03:57:32;98420.22;;;9.61;46.86
49973;BME280;65693;49.798;10.968;2023-04-08T03:59:58;98415.00;;;9.59;47.29
49973;BME280;65693;49.798;10.968;2023-04-08T04:02:26;98423.88;;;9.58;47.13
49973;BME280;65693;49.798;10.968;2023-04-08T04:04:53;98427.47;;;9.57;46.96
49973;BME280;65693;49.798;10.968;2023-04-08T04:07:20;98417.81;;;9.56;46.99
49973;BME280;65693;49.798;10.968;2023-04-08T04:09:46;98423.94;;;9.57;47.19
49973;BME280;65693;49.798;10.968;2023-04-08T04:12:12;98429.25;;;9.57;47.18
49973;BME280;65693;49.798;10.968;2023-04-08T04:14:39;98435.59;;;9.54;47.28
49973;BME280;65693;49.798;10.968;2023-04-08T04:17:05;98432.06;;;9.53;47.28
49973;BME280;65693;49.798;10.968;2023-04-08T04:19:33;98428.59;;;9.53;47.13
49973;BME280;65693;49.798;10.968;2023-04-08T04:21:59;98432.94;;;9.54;47.21
49973;BME280;65693;49.798;10.968;2023-04-08T04:24:25;98435.59;;;9.54;47.25
49973;BME280;65693;49.798;10.968;2023-04-08T04:26:52;98436.53;;;9.53;47.39
49973;BME280;65693;49.798;10.968;2023-04-08T04:29:18;98441.81;;;9.53;47.04
49973;BME280;65693;49.798;10.968;2023-04-08T04:31:45;98445.28;;;9.53;47.29
49973;BME280;65693;49.798;10.968;2023-04-08T04:34:11;98446.34;;;9.51;47.24
49973;BME280;65693;49.798;10.968;2023-04-08T04:36:39;98446.25;;;9.52;47.45
49973;BME280;65693;49.798;10.968;2023-04-08T04:39:05;98448.06;;;9.52;47.10
49973;BME280;65693;49.798;10.968;2023-04-08T04:41:32;98445.47;;;9.50;47.11
49973;BME280;65693;49.798;10.968;2023-04-08T04:44:02;98453.47;;;9.49;47.44
49973;BME280;65693;49.798;10.968;2023-04-08T04:46:29;98450.84;;;9.49;47.20
49973;BME280;65693;49.798;10.968;2023-04-08T04:48:55;98452.66;;;9.48;47.20
49973;BME280;65693;49.798;10.968;2023-04-08T04:51:22;98452.66;;;9.48;47.46
49973;BME280;65693;49.798;10.968;2023-04-08T04:53:50;98450.94;;;9.47;47.49
49973;BME280;65693;49.798;10.968;2023-04-08T04:56:16;98455.38;;;9.47;47.48
49973;BME280;65693;49.798;10.968;2023-04-08T04:58:43;98457.94;;;9.48;47.49
49973;BME280;65693;49.798;10.968;2023-04-08T05:01:09;98450.06;;;9.47;47.38
49973;BME280;65693;49.798;10.968;2023-04-08T05:03:35;98464.25;;;9.46;47.08
49973;BME280;65693;49.798;10.968;2023-04-08T05:06:02;98462.53;;;9.45;47.42
49973;BME280;65693;49.798;10.968;2023-04-08T05:08:28;98461.69;;;9.44;47.17
49973;BME280;65693;49.798;10.968;2023-04-08T05:10:56;98472.28;;;9.44;47.42
49973;BME280;65693;49.798;10.968;2023-04-08T05:13:26;98466.13;;;9.44;47.52
49973;BME280;65693;49.798;10.968;2023-04-08T05:15:52;98472.28;;;9.44;47.53
49973;BME280;65693;49.798;10.968;2023-04-08T05:18:19;98471.41;;;9.44;47.61
49973;BME280;65693;49.798;10.968;2023-04-08T05:20:45;98478.50;;;9.43;47.35
49973;BME280;65693;49.798;10.968;2023-04-08T05:23:12;98475.94;;;9.42;47.46
49973;BME280;65693;49.798;10.968;2023-04-08T05:25:38;98478.59;;;9.42;47.16
49973;BME280;65693;49.798;10.968;2023-04-08T05:28:06;98482.16;;;9.40;47.39
49973;BME280;65693;49.798;10.968;2023-04-08T05:30:32;98488.94;;;9.46;47.50
49973;BME280;65693;49.798;10.968;2023-04-08T05:32:59;98483.63;;;9.46;47.26
49973;BME280;65693;49.798;10.968;2023-04-08T05:35:26;98485.59;;;9.43;47.40
49973;BME280;65693;49.798;10.968;2023-04-08T05:37:52;98491.75;;;9.43;47.58
49973;BME280;65693;49.798;10.968;2023-04-08T05:40:18;98494.47;;;9.42;47.49
49973;BME280;65693;49.798;10.968;2023-04-08T05:42:45;98493.53;;;9.43;47.49
49973;BME280;65693;49.798;10.968;2023-04-08T05:45:13;98496.22;;;9.41;47.69
49973;BME280;65693;49.798;10.968;2023-04-08T05:47:40;98498.88;;;9.41;47.80
49973;BME280;65693;49.798;10.968;2023-04-08T05:50:07;98501.63;;;9.39;47.64
49973;BME280;65693;49.798;10.968;2023-04-08T05:52:34;98505.81;;;9.44;47.55
49973;BME280;65693;49.798;10.968;2023-04-08T05:55:00;98506.75;;;9.43;47.61
49973;BME280;65693;49.798;10.968;2023-04-08T05:57:26;98499.81;;;9.40;47.46
49973;BME280;65693;49.798;10.968;2023-04-08T05:59:53;98509.47;;;9.41;47.73
49973;BME280;65693;49.798;10.968;2023-04-08T06:02:21;98507.75;;;9.40;47.90
49973;BME280;65693;49.798;10.968;2023-04-08T06:04:47;98517.50;;;9.39;47.63
49973;BME280;65693;49.798;10.968;2023-04-08T06:07:13;98513.91;;;9.40;48.05
49973;BME280;65693;49.798;10.968;2023-04-08T06:09:40;98509.63;;;9.38;47.95
49973;BME280;65693;49.798;10.968;2023-04-08T06:12:06;98519.38;;;9.37;48.03
49973;BME280;65693;49.798;10.968;2023-04-08T06:14:33;98519.38;;;9.37;48.11
49973;BME280;65693;49.798;10.968;2023-04-08T06:16:59;98525.59;;;9.36;47.97
49973;BME280;65693;49.798;10.968;2023-04-08T06:19:27;98522.97;;;9.36;48.07
49973;BME280;65693;49.798;10.968;2023-04-08T06:21:53;98521.25;;;9.35;47.99
49973;BME280;65693;49.798;10.968;2023-04-08T06:24:23;98525.50;;;9.38;48.12
49973;BME280;65693;49.798;10.968;2023-04-08T06:26:50;98525.50;;;9.38;48.04
49973;BME280;65693;49.798;10.968;2023-04-08T06:29:17;98532.59;;;9.37;47.80
49973;BME280;65693;49.798;10.968;2023-04-08T06:31:44;98533.53;;;9.36;47.80
49973;BME280;65693;49.798;10.968;2023-04-08T06:34:10;98534.38;;;9.37;47.99
49973;BME280;65693;49.798;10.968;2023-04-08T06:36:38;98533.63;;;9.35;47.93
49973;BME280;65693;49.798;10.968;2023-04-08T06:39:04;98543.25;;;9.36;47.92
49973;BME280;65693;49.798;10.968;2023-04-08T06:41:31;98546.00;;;9.34;48.17
49973;BME280;65693;49.798;10.968;2023-04-08T06:43:57;98549.56;;;9.33;47.92
49973;BME280;65693;49.798;10.968;2023-04-08T06:46:24;98539.91;;;9.32;48.27
49973;BME280;65693;49.798;10.968;2023-04-08T06:48:50;98542.56;;;9.32;48.00
49973;BME280;65693;49.798;10.968;2023-04-08T06:51:17;98542.56;;;9.32;48.11
49973;BME280;65693;49.798;10.968;2023-04-08T06:53:45;98542.66;;;9.31;48.11
49973;BME280;65693;49.798;10.968;2023-04-08T06:56:11;98540.94;;;9.30;48.28
49973;BME280;65693;49.798;10.968;2023-04-08T06:58:38;98545.31;;;9.31;48.53
49973;BME280;65693;49.798;10.968;2023-04-08T07:01:04;98553.31;;;9.29;48.24
49973;BME280;65693;49.798;10.968;2023-04-08T07:03:31;98550.59;;;9.31;48.22
49973;BME280;65693;49.798;10.968;2023-04-08T07:05:57;98551.53;;;9.30;48.35
49973;BME280;65693;49.798;10.968;2023-04-08T07:08:23;98555.19;;;9.27;48.50
49973;BME280;65693;49.798;10.968;2023-04-08T07:10:52;98561.34;;;9.28;48.55
49973;BME280;65693;49.798;10.968;2023-04-08T07:13:18;98563.97;;;9.28;48.39
49973;BME280;65693;49.798;10.968;2023-04-08T07:15:45;98562.19;;;9.28;48.37
49973;BME280;65693;49.798;10.968;2023-04-08T07:18:11;98569.28;;;9.28;48.45
49973;BME280;65693;49.798;10.968;2023-04-08T07:20:38;98566.69;;;9.26;48.58
49973;BME280;65693;49.798;10.968;2023-04-08T07:23:06;98572.00;;;9.26;48.27
49973;BME280;65693;49.798;10.968;2023-04-08T07:25:32;98572.91;;;9.25;48.62
49973;BME280;65693;49.798;10.968;2023-04-08T07:28:01;98564.13;;;9.24;48.32
49973;BME280;65693;49.798;10.968;2023-04-08T07:30:27;98578.22;;;9.25;48.37
49973;BME280;65693;49.798;10.968;2023-04-08T07:32:54;98578.22;;;9.25;48.62
49973;BME280;65693;49.798;10.968;2023-04-08T07:35:22;98582.63;;;9.24;48.70
49973;BME280;65693;49.798;10.968;2023-04-08T07:37:49;98585.22;;;9.26;48.24
49973;BME280;65693;49.798;10.968;2023-04-08T07:40:17;98594.09;;;9.25;48.62
49973;BME280;65693;49.798;10.968;2023-04-08T07:42:44;98587.09;;;9.24;48.60
49973;BME280;65693;49.798;10.968;2023-04-08T07:45:11;98591.50;;;9.23;48.39
49973;BME280;65693;49.798;10.968;2023-04-08T07:47:38;98592.22;;;9.27;48.44
49973;BME280;65693;49.798;10.968;2023-04-08T07:50:06;98593.75;;;9.31;48.49
49973;BME280;65693;49.798;10.968;2023-04-08T07:52:32;98595.44;;;9.32;48.32
49973;BME280;65693;49.798;10.968;2023-04-08T07:54:59;98592.91;;;9.31;48.91
49973;BME280;65693;49.798;10.968;2023-04-08T07:57:26;98593.84;;;9.30;48.51
49973;BME280;65693;49.798;10.968;2023-04-08T07:59:52;98594.69;;;9.30;48.43
49973;BME280;65693;49.798;10.968;2023-04-08T08:02:20;98593.91;;;9.28;48.91
49973;BME280;65693;49.798;10.968;2023-04-08T08:04:46;98596.50;;;9.30;48.51
49973;BME280;65693;49.798;10.968;2023-04-08T08:07:13;98605.38;;;9.29;48.54
49973;BME280;65693;49.798;10.968;2023-04-08T08:09:39;98600.25;;;9.25;49.09
49973;BME280;65693;49.798;10.968;2023-04-08T08:12:06;98609.00;;;9.26;48.83
49973;BME280;65693;49.798;10.968;2023-04-08T08:14:32;98606.38;;;9.26;48.74
49973;BME280;65693;49.798;10.968;2023-04-08T08:16:59;98607.31;;;9.25;48.62
49973;BME280;65693;49.798;10.968;2023-04-08T08:19:27;98606.53;;;9.23;48.68
49973;BME280;65693;49.798;10.968;2023-04-08T08:21:53;98614.38;;;9.24;48.76
49973;BME280;65693;49.798;10.968;2023-04-08T08:24:20;98611.66;;;9.26;48.70
49973;BME280;65693;49.798;10.968;2023-04-08T08:26:47;98616.09;;;9.25;48.84
49973;BME280;65693;49.798;10.968;2023-04-08T08:29:13;98616.09;;;9.25;49.02
49973;BME280;65693;49.798;10.968;2023-04-08T08:31:40;98617.13;;;9.23;49.14
49973;BME280;65693;49.798;10.968;2023-04-08T08:34:06;98615.25;;;9.25;49.06
49973;BME280;65693;49.798;10.968;2023-04-08T08:36:34;98616.19;;;9.24;49.04
49973;BME280;65693;49.798;10.968;2023-04-08T08:39:01;98623.25;;;9.23;48.85
49973;BME280;65693;49.798;10.968;2023-04-08T08:41:32;98626.59;;;9.27;48.74
49973;BME280;65693;49.798;10.968;2023-04-08T08:43:59;98624.19;;;9.22;48.81
49973;BME280;65693;49.798;10.968;2023-04-08T08:46:26;98627.69;;;9.23;48.76
49973;BME280;65693;49.798;10.968;2023-04-08T08:48:52;98628.53;;;9.23;49.15
49973;BME280;65693;49.798;10.968;2023-04-08T08:51:19;98632.09;;;9.22;49.04
49973;BME280;65693;49.798;10.968;2023-04-08T08:53:46;98633.91;;;9.22;48.97
49973;BME280;65693;49.798;10.968;2023-04-08T08:56:13;98635.63;;;9.23;49.19
49973;BME280;65693;49.798;10.968;2023-04-08T08:58:39;98634.75;;;9.22;48.85
49973;BME280;65693;49.798;10.968;2023-04-08T09:01:30;98628.63;;;9.22;49.11
49973;BME280;65693;49.798;10.968;2023-04-08T09:04:14;98636.56;;;9.22;49.34
49973;BME280;65693;49.798;10.968;2023-04-08T09:06:44;98633.16;;;9.20;48.88
49973;BME280;65693;49.798;10.968;2023-04-08T09:09:12;98637.50;;;9.21;49.39
49973;BME280;65693;49.798;10.968;2023-04-08T09:11:40;98635.69;;;9.21;48.93
49973;BME280;65693;49.798;10.968;2023-04-08T09:14:18;98632.28;;;9.19;49.45
49973;BME280;65693;49.798;10.968;2023-04-08T09:16:45;98639.22;;;9.22;49.17
49973;BME280;65693;49.798;10.968;2023-04-08T09:19:14;98642.00;;;9.19;49.15
49973;BME280;65693;49.798;10.968;2023-04-08T09:21:41;98639.28;;;9.20;49.14
49973;BME280;65693;49.798;10.968;2023-04-08T09:24:08;98634.91;;;9.19;49.22
49973;BME280;65693;49.798;10.968;2023-04-08T09:26:36;98635.84;;;9.18;49.28
49973;BME280;65693;49.798;10.968;2023-04-08T09:29:04;98640.13;;;9.21;49.36
49973;BME280;65693;49.798;10.968;2023-04-08T09:31:32;98641.84;;;9.22;49.24
49973;BME280;65693;49.798;10.968;2023-04-08T09:34:08;98639.97;;;9.24;48.97
49973;BME280;65693;49.798;10.968;2023-04-08T09:36:35;98645.44;;;9.21;49.37
49973;BME280;65693;49.798;10.968;2023-04-08T09:39:02;98645.44;;;9.21;49.35
49973;BME280;65693;49.798;10.968;2023-04-08T09:41:32;98642.78;;;9.21;49.02
49973;BME280;65693;49.798;10.968;2023-04-08T09:44:02;98648.06;;;9.21;49.04
49973;BME280;65693;49.798;10.968;2023-04-08T09:46:32;98662.06;;;9.23;48.97
49973;BME280;65693;49.798;10.968;2023-04-08T09:49:05;98663.94;;;9.21;49.30
49973;BME280;65693;49.798;10.968;2023-04-08T09:51:35;98653.38;;;9.21;49.20
49973;BME280;65693;49.798;10.968;2023-04-08T09:54:11;98654.13;;;9.23;49.55
49973;BME280;65693;49.798;10.968;2023-04-08T09:56:40;98647.13;;;9.22;49.40
49973;BME280;65693;49.798;10.968;2023-04-08T09:59:13;98656.00;;;9.21;49.34
49973;BME280;65693;49.798;10.968;2023-04-08T10:01:44;98657.72;;;9.22;49.69
49973;BME280;65693;49.798;10.968;2023-04-08T10:04:13;98663.00;;;9.22;49.37
49973;BME280;65693;49.798;10.968;2023-04-08T10:06:41;98651.50;;;9.23;49.44
49973;BME280;65693;49.798;10.968;2023-04-08T10:09:08;98658.66;;;9.21;49.70
49973;BME280;65693;49.798;10.968;2023-04-08T10:11:35;98661.13;;;9.24;49.31
49973;BME280;65693;49.798;10.968;2023-04-08T10:14:02;98658.56;;;9.22;49.53
49973;BME280;65693;49.798;10.968;2023-04-08T10:16:30;98646.28;;;9.21;49.33
49973;BME280;65693;49.798;10.968;2023-04-08T10:18:56;98651.56;;;9.21;49.62
49973;BME280;65693;49.798;10.968;2023-04-08T10:21:33;98661.13;;;9.24;49.50
49973;BME280;65693;49.798;10.968;2023-04-08T10:24:00;98646.19;;;9.23;49.30
49973;BME280;65693;49.798;10.968;2023-04-08T10:26:32;98659.44;;;9.23;49.58
49973;BME280;65693;49.798;10.968;2023-04-08T10:29:32;98653.28;;;9.22;49.37
49973;BME280;65693;49.798;10.968;2023-04-08T10:32:00;98651.50;;;9.23;49.50
49973;BME280;65693;49.798;10.968;2023-04-08T10:34:27;98658.44;;;9.25;49.67
49973;BME280;65693;49.798;10.968;2023-04-08T10:36:56;98648.84;;;9.23;49.32
49973;BME280;65693;49.798;10.968;2023-04-08T10:39:26;98662.06;;;9.23;49.52
49973;BME280;65693;49.798;10.968;2023-04-08T10:41:52;98646.97;;;9.25;49.65
49973;BME280;65693;49.798;10.968;2023-04-08T10:44:21;98656.69;;;9.24;49.63
49973;BME280;65693;49.798;10.968;2023-04-08T10:46:49;98657.72;;;9.22;49.63
49973;BME280;65693;49.798;10.968;2023-04-08T10:49:17;98651.41;;;9.24;49.62
49973;BME280;65693;49.798;10.968;2023-04-08T10:51:44;98659.44;;;9.23;49.74
49973;BME280;65693;49.798;10.968;2023-04-08T10:54:13;98647.13;;;9.22;49.63
49973;BME280;65693;49.798;10.968;2023-04-08T10:56:44;98647.13;;;9.22;50.04
49973;BME280;65693;49.798;10.968;2023-04-08T10:59:13;98647.13;;;9.22;49.59
49973;BME280;65693;49.798;10.968;2023-04-08T11:01:42;98648.84;;;9.23;49.96
49973;BME280;65693;49.798;10.968;2023-04-08T11:04:13;98646.09;;;9.24;49.64
49973;BME280;65693;49.798;10.968;2023-04-08T11:06:43;98638.09;;;9.26;49.64
49973;BME280;65693;49.798;10.968;2023-04-08T11:09:10;98640.41;;;9.32;50.22
49973;BME280;65693;49.798;10.968;2023-04-08T11:11:37;98636.78;;;9.35;51.85
49973;BME280;65693;49.798;10.968;2023-04-08T11:14:03;98647.41;;;9.33;52.10
49973;BME280;65693;49.798;10.968;2023-04-08T11:16:31;98634.34;;;9.30;52.40
49973;BME280;65693;49.798;10.968;2023-04-08T11:18:57;98638.81;;;9.30;52.47
49973;BME280;65693;49.798;10.968;2023-04-08T11:21:24;98640.53;;;9.31;52.38
49973;BME280;65693;49.798;10.968;2023-04-08T11:23:54;98633.53;;;9.30;51.92
49973;BME280;65693;49.798;10.968;2023-04-08T11:26:21;98636.06;;;9.31;51.78
49973;BME280;65693;49.798;10.968;2023-04-08T11:28:48;98637.88;;;9.31;51.72
49973;BME280;65693;49.798;10.968;2023-04-08T11:31:16;98629.06;;;9.30;51.50
49973;BME280;65693;49.798;10.968;2023-04-08T11:33:45;98636.16;;;9.30;51.31
49973;BME280;65693;49.798;10.968;2023-04-08T11:36:12;98642.28;;;9.30;51.08
49973;BME280;65693;49.798;10.968;2023-04-08T11:38:39;98632.47;;;9.32;51.37
49973;BME280;65693;49.798;10.968;2023-04-08T11:41:07;98628.84;;;9.35;50.88
49973;BME280;65693;49.798;10.968;2023-04-08T11:43:35;98635.84;;;9.36;51.16
49973;BME280;65693;49.798;10.968;2023-04-08T11:46:08;98632.25;;;9.37;50.89
49973;BME280;65693;49.798;10.968;2023-04-08T11:48:34;98637.63;;;9.35;51.28
49973;BME280;65693;49.798;10.968;2023-04-08T11:51:03;98634.13;;;9.35;51.00
49973;BME280;65693;49.798;10.968;2023-04-08T11:53:29;98633.34;;;9.33;51.17
49973;BME280;65693;49.798;10.968;2023-04-08T11:55:56;98639.34;;;9.36;50.89
49973;BME280;65693;49.798;10.968;2023-04-08T11:58:24;98637.72;;;9.34;51.30
49973;BME280;65693;49.798;10.968;2023-04-08T12:00:50;98640.34;;;9.34;50.90
49973;BME280;65693;49.798;10.968;2023-04-08T12:03:16;98633.34;;;9.33;51.37
49973;BME280;65693;49.798;10.968;2023-04-08T12:05:43;98639.47;;;9.33;50.93
49973;BME280;65693;49.798;10.968;2023-04-08T12:08:10;98644.78;;;9.33;51.00
49973;BME280;65693;49.798;10.968;2023-04-08T12:10:37;98635.94;;;9.34;50.75
49973;BME280;65693;49.798;10.968;2023-04-08T12:13:03;98641.28;;;9.33;50.92
49973;BME280;65693;49.798;10.968;2023-04-08T12:15:31;98647.41;;;9.33;50.78
49973;BME280;65693;49.798;10.968;2023-04-08T12:17:58;98644.72;;;9.35;51.13
49973;BME280;65693;49.798;10.968;2023-04-08T12:20:24;98637.78;;;9.32;50.86
49973;BME280;65693;49.798;10.968;2023-04-08T12:22:50;98650.06;;;9.33;50.94
49973;BME280;65693;49.798;10.968;2023-04-08T12:25:17;98657.22;;;9.31;51.15
49973;BME280;65693;49.798;10.968;2023-04-08T12:27:43;98655.34;;;9.33;50.91
49973;BME280;65693;49.798;10.968;2023-04-08T12:30:10;98647.53;;;9.32;51.27
49973;BME280;65693;49.798;10.968;2023-04-08T12:32:39;98646.59;;;9.33;51.06
49973;BME280;65693;49.798;10.968;2023-04-08T12:35:05;98647.59;;;9.30;50.92
49973;BME280;65693;49.798;10.968;2023-04-08T12:37:32;98654.59;;;9.31;51.03
49973;BME280;65693;49.798;10.968;2023-04-08T12:39:58;98660.66;;;9.33;50.73
49973;BME280;65693;49.798;10.968;2023-04-08T12:42:25;98663.38;;;9.32;51.02
49973;BME280;65693;49.798;10.968;2023-04-08T12:44:52;98663.28;;;9.33;50.69
49973;BME280;65693;49.798;10.968;2023-04-08T12:47:18;98657.16;;;9.33;50.98
49973;BME280;65693;49.798;10.968;2023-04-08T12:49:46;98659.63;;;9.36;50.93
49973;BME280;65693;49.798;10.968;2023-04-08T12:52:13;98666.56;;;9.38;50.39
49973;BME280;65693;49.798;10.968;2023-04-08T12:54:40;98656.84;;;9.39;50.66
49973;BME280;65693;49.798;10.968;2023-04-08T12:57:06;98659.56;;;9.37;50.78
49973;BME280;65693;49.798;10.968;2023-04-08T12:59:33;98661.28;;;9.38;50.83
49973;BME280;65693;49.798;10.968;2023-04-08T13:01:59;98660.34;;;9.39;50.77